createdAt,value
2017-05-03T00:00:45.011Z,1016.01
2017-05-03T00:01:53.966Z,1015.97
2017-05-03T00:03:03.230Z,1015.96
2017-05-03T00:04:12.191Z,1016.02
2017-05-03T00:05:21.154Z,1016.01
2017-05-03T00:06:30.108Z,1015.98
2017-05-03T00:07:39.058Z,1015.98
2017-05-03T00:08:48.402Z,1016.01
2017-05-03T00:09:57.360Z,1016.01
2017-05-03T00:11:06.319Z,1016.01
2017-05-03T00:12:15.274Z,1016.02
2017-05-03T00:13:24.224Z,1015.98
2017-05-03T00:14:33.479Z,1015.98
2017-05-03T00:15:42.432Z,1016.02
2017-05-03T00:16:51.391Z,1015.98
2017-05-03T00:18:00.346Z,1016.01
2017-05-03T00:19:09.632Z,1015.97
2017-05-03T00:20:18.843Z,1016.05
2017-05-03T00:21:27.795Z,1016.04
2017-05-03T00:22:36.839Z,1016
2017-05-03T00:23:45.790Z,1016.08
2017-05-03T00:24:54.785Z,1016.05
2017-05-03T00:26:04.043Z,1016.05
2017-05-03T00:27:12.999Z,1016.06
2017-05-03T00:28:21.956Z,1016.09
2017-05-03T00:29:30.911Z,1016.06
2017-05-03T00:30:39.870Z,1016.09
2017-05-03T00:31:49.127Z,1016.14
2017-05-03T00:32:58.083Z,1016.18
2017-05-03T00:34:07.041Z,1016.16
2017-05-03T00:35:15.994Z,1016.13
2017-05-03T00:36:24.954Z,1016.14
2017-05-03T00:37:34.212Z,1016.17
2017-05-03T00:38:43.168Z,1016.2
2017-05-03T00:39:52.169Z,1016.24
2017-05-03T00:41:01.458Z,1016.29
2017-05-03T00:42:10.411Z,1016.31
2017-05-03T00:43:19.671Z,1016.27
2017-05-03T00:44:28.948Z,1016.28
2017-05-03T00:45:37.996Z,1016.3
2017-05-03T00:46:46.953Z,1016.37
2017-05-03T00:47:55.912Z,1016.35
2017-05-03T00:49:05.171Z,1016.37
2017-05-03T00:50:14.130Z,1016.41
2017-05-03T00:51:23.099Z,1016.39
2017-05-03T00:52:32.051Z,1016.37
2017-05-03T00:53:41.008Z,1016.41
2017-05-03T00:54:50.260Z,1016.37
2017-05-03T00:55:59.311Z,1016.36
2017-05-03T00:57:08.267Z,1016.39
2017-05-03T00:58:17.224Z,1016.34
2017-05-03T00:59:26.174Z,1016.33
2017-05-03T01:00:35.438Z,1016.42
2017-05-03T01:01:44.392Z,1016.46
2017-05-03T01:02:53.349Z,1016.43
2017-05-03T01:04:02.300Z,1016.5
2017-05-03T01:05:11.259Z,1016.53
2017-05-03T01:06:20.467Z,1016.52
2017-05-03T01:07:29.414Z,1016.53
2017-05-03T01:08:38.962Z,1016.55
2017-05-03T01:09:48.243Z,1016.54
2017-05-03T01:10:57.205Z,1016.52
2017-05-03T01:12:06.461Z,1016.52
2017-05-03T01:13:15.420Z,1016.5
2017-05-03T01:14:24.473Z,1016.52
2017-05-03T01:15:33.435Z,1016.51
2017-05-03T01:16:42.393Z,1016.5
2017-05-03T01:17:51.655Z,1016.51
2017-05-03T01:19:00.609Z,1016.55
2017-05-03T01:20:09.656Z,1016.51
2017-05-03T01:21:18.947Z,1016.53
2017-05-03T01:22:27.903Z,1016.53
2017-05-03T01:23:37.105Z,1016.5
2017-05-03T01:24:46.060Z,1016.52
2017-05-03T01:25:55.016Z,1016.56
2017-05-03T01:27:03.968Z,1016.58
2017-05-03T01:28:12.938Z,1016.65
2017-05-03T01:29:22.280Z,1016.63
2017-05-03T01:30:31.342Z,1016.67
2017-05-03T01:31:40.300Z,1016.69
2017-05-03T01:32:49.261Z,1016.75
2017-05-03T01:33:58.224Z,1016.74
2017-05-03T01:35:07.749Z,1016.69
2017-05-03T01:36:16.787Z,1016.7
2017-05-03T01:37:25.745Z,1016.69
2017-05-03T01:38:34.696Z,1016.73
2017-05-03T01:39:43.655Z,1016.76
2017-05-03T01:40:52.944Z,1016.79
2017-05-03T01:42:01.899Z,1016.79
2017-05-03T01:43:10.863Z,1016.79
2017-05-03T01:44:20.149Z,1016.83
2017-05-03T01:45:29.109Z,1016.87
2017-05-03T01:46:38.318Z,1016.87
2017-05-03T01:47:47.278Z,1016.85
2017-05-03T01:48:56.253Z,1016.87
2017-05-03T01:50:05.213Z,1016.92
2017-05-03T01:51:14.175Z,1016.89
2017-05-03T01:52:23.840Z,1016.92
2017-05-03T01:53:32.796Z,1016.97
2017-05-03T01:54:41.752Z,1016.95
2017-05-03T01:55:50.705Z,1016.92
2017-05-03T01:56:59.667Z,1016.98
2017-05-03T01:58:09.019Z,1016.95
2017-05-03T01:59:18.063Z,1016.97
2017-05-03T02:00:27.017Z,1016.96
2017-05-03T02:01:35.971Z,1016.95
2017-05-03T02:02:45.015Z,1016.95
2017-05-03T02:03:54.275Z,1017.05
2017-05-03T02:05:03.234Z,1017.04
2017-05-03T02:06:12.188Z,1017.03
2017-05-03T02:07:21.310Z,1017.03
2017-05-03T02:08:30.267Z,1017.03
2017-05-03T02:09:39.612Z,1017.05
2017-05-03T02:10:48.565Z,1017.06
2017-05-03T02:11:57.521Z,1017
2017-05-03T02:13:06.491Z,1016.97
2017-05-03T02:14:15.530Z,1017.01
2017-05-03T02:15:24.787Z,1017
2017-05-03T02:16:33.752Z,1017.03
2017-05-03T02:17:42.741Z,1016.97
2017-05-03T02:18:51.696Z,1016.98
2017-05-03T02:20:00.656Z,1017.03
2017-05-03T02:21:09.912Z,1017.07
2017-05-03T02:22:18.862Z,1017.07
2017-05-03T02:23:27.827Z,1017.03
2017-05-03T02:24:36.781Z,1017
2017-05-03T02:25:45.763Z,1017.02
2017-05-03T02:26:55.120Z,1017.02
2017-05-03T02:28:04.396Z,1017.05
2017-05-03T02:29:13.391Z,1017.01
2017-05-03T02:30:22.348Z,1017.09
2017-05-03T02:31:31.305Z,1017.07
2017-05-03T02:32:40.566Z,1017.03
2017-05-03T02:33:49.523Z,1017.07
2017-05-03T02:34:58.574Z,1017.03
2017-05-03T02:36:07.853Z,1017.08
2017-05-03T02:37:16.815Z,1017.06
2017-05-03T02:38:26.067Z,1017.04
2017-05-03T02:39:35.032Z,1017.07
2017-05-03T02:40:44.080Z,1017.06
2017-05-03T02:41:53.034Z,1017.09
2017-05-03T02:43:02.033Z,1017.12
2017-05-03T02:44:11.245Z,1017.08
2017-05-03T02:45:20.199Z,1017.07
2017-05-03T02:46:29.239Z,1017.12
2017-05-03T02:47:38.282Z,1017.14
2017-05-03T02:48:47.242Z,1017.13
2017-05-03T02:49:56.537Z,1017.14
2017-05-03T02:51:05.491Z,1017.14
2017-05-03T02:52:14.446Z,1017.12
2017-05-03T02:53:23.399Z,1017.14
2017-05-03T02:54:32.359Z,1017.11
2017-05-03T02:55:41.645Z,1017.11
2017-05-03T02:56:50.602Z,1017.1
2017-05-03T02:57:59.570Z,1017.12
2017-05-03T02:59:08.524Z,1017.11
2017-05-03T03:00:17.480Z,1017.12
2017-05-03T03:01:26.735Z,1017.13
2017-05-03T03:02:35.689Z,1017.12
2017-05-03T03:03:44.651Z,1017.14
2017-05-03T03:04:53.941Z,1017.12
2017-05-03T03:06:02.895Z,1017.15
2017-05-03T03:07:12.100Z,1017.13
2017-05-03T03:08:21.060Z,1017.13
2017-05-03T03:09:30.018Z,1017.17
2017-05-03T03:10:39.709Z,1017.17
2017-05-03T03:11:48.754Z,1017.19
2017-05-03T03:12:58.092Z,1017.21
2017-05-03T03:14:07.132Z,1017.19
2017-05-03T03:15:16.095Z,1017.19
2017-05-03T03:16:25.044Z,1017.18
2017-05-03T03:17:34.090Z,1017.2
2017-05-03T03:18:43.626Z,1017.21
2017-05-03T03:19:52.590Z,1017.18
2017-05-03T03:21:01.548Z,1017.18
2017-05-03T03:22:10.504Z,1017.23
2017-05-03T03:23:19.473Z,1017.19
2017-05-03T03:24:29.002Z,1017.22
2017-05-03T03:25:37.956Z,1017.24
2017-05-03T03:26:47.001Z,1017.2
2017-05-03T03:27:56.281Z,1017.24
2017-05-03T03:29:05.238Z,1017.23
2017-05-03T03:30:14.452Z,1017.26
2017-05-03T03:31:23.582Z,1017.32
2017-05-03T03:32:32.530Z,1017.35
2017-05-03T03:33:41.497Z,1017.34
2017-05-03T03:34:50.457Z,1017.29
2017-05-03T03:35:59.666Z,1017.33
2017-05-03T03:37:08.618Z,1017.33
2017-05-03T03:38:17.573Z,1017.3
2017-05-03T03:39:26.532Z,1017.32
2017-05-03T03:40:35.571Z,1017.31
2017-05-03T03:41:44.776Z,1017.32
2017-05-03T03:42:53.732Z,1017.34
2017-05-03T03:44:02.794Z,1017.36
2017-05-03T03:45:11.756Z,1017.34
2017-05-03T03:46:20.708Z,1017.37
2017-05-03T03:47:30.249Z,1017.42
2017-05-03T03:48:39.208Z,1017.42
2017-05-03T03:49:48.496Z,1017.46
2017-05-03T03:50:57.457Z,1017.43
2017-05-03T03:52:06.417Z,1017.39
2017-05-03T03:53:15.955Z,1017.35
2017-05-03T03:54:25.001Z,1017.31
2017-05-03T03:55:33.962Z,1017.26
2017-05-03T03:56:43.238Z,1017.24
2017-05-03T03:57:52.188Z,1017.24
2017-05-03T03:59:02.278Z,1017.23
2017-05-03T04:00:11.238Z,1017.23
2017-05-03T04:01:20.194Z,1017.25
2017-05-03T04:02:29.150Z,1017.31
2017-05-03T04:03:38.104Z,1017.27
2017-05-03T04:04:47.409Z,1017.25
2017-05-03T04:05:56.455Z,1017.23
2017-05-03T04:07:05.409Z,1017.32
2017-05-03T04:08:14.362Z,1017.32
2017-05-03T04:09:23.649Z,1017.34
2017-05-03T04:10:32.866Z,1017.35
2017-05-03T04:11:41.822Z,1017.36
2017-05-03T04:12:50.779Z,1017.37
2017-05-03T04:13:59.733Z,1017.45
2017-05-03T04:15:08.695Z,1017.45
2017-05-03T04:16:18.233Z,1017.48
2017-05-03T04:17:27.189Z,1017.48
2017-05-03T04:18:36.140Z,1017.55
2017-05-03T04:19:45.099Z,1017.54
2017-05-03T04:20:54.056Z,1017.56
2017-05-03T04:22:03.264Z,1017.58
2017-05-03T04:23:12.215Z,1017.57
2017-05-03T04:24:21.171Z,1017.57
2017-05-03T04:25:30.130Z,1017.57
2017-05-03T04:26:39.087Z,1017.54
2017-05-03T04:27:48.292Z,1017.54
2017-05-03T04:28:57.246Z,1017.57
2017-05-03T04:30:06.525Z,1017.61
2017-05-03T04:31:15.474Z,1017.64
2017-05-03T04:32:24.438Z,1017.64
2017-05-03T04:33:33.635Z,1017.63
2017-05-03T04:34:42.593Z,1017.64
2017-05-03T04:35:51.549Z,1017.68
2017-05-03T04:37:00.500Z,1017.75
2017-05-03T04:38:09.632Z,1017.74
2017-05-03T04:39:18.845Z,1017.67
2017-05-03T04:40:27.816Z,1017.72
2017-05-03T04:41:36.770Z,1017.79
2017-05-03T04:42:45.723Z,1017.77
2017-05-03T04:43:54.680Z,1017.83
2017-05-03T04:45:04.304Z,1017.82
2017-05-03T04:46:13.259Z,1017.81
2017-05-03T04:47:22.215Z,1017.72
2017-05-03T04:48:31.261Z,1017.77
2017-05-03T04:49:40.223Z,1017.76
2017-05-03T04:50:49.601Z,1017.79
2017-05-03T04:51:58.555Z,1017.8
2017-05-03T04:53:07.510Z,1017.8
2017-05-03T04:54:16.468Z,1017.79
2017-05-03T04:55:25.457Z,1017.84
2017-05-03T04:56:34.661Z,1017.84
2017-05-03T04:57:43.614Z,1017.83
2017-05-03T04:58:52.575Z,1017.83
2017-05-03T05:00:01.535Z,1017.84
2017-05-03T05:01:10.489Z,1017.89
2017-05-03T05:02:20.358Z,1017.83
2017-05-03T05:03:29.632Z,1017.86
2017-05-03T05:04:38.596Z,1017.87
2017-05-03T05:05:47.550Z,1017.85
2017-05-03T05:06:56.512Z,1017.87
2017-05-03T05:08:05.722Z,1017.9
2017-05-03T05:09:14.682Z,1017.91
2017-05-03T05:10:23.633Z,1017.94
2017-05-03T05:11:32.586Z,1017.95
2017-05-03T05:12:41.536Z,1017.9
2017-05-03T05:13:50.756Z,1018
2017-05-03T05:14:59.720Z,1018.03
2017-05-03T05:16:08.856Z,1018.05
2017-05-03T05:17:17.812Z,1017.96
2017-05-03T05:18:26.942Z,1017.97
2017-05-03T05:19:36.149Z,1018.03
2017-05-03T05:20:45.111Z,1018.09
2017-05-03T05:21:54.063Z,1018.06
2017-05-03T05:23:03.017Z,1018.09
2017-05-03T05:24:12.061Z,1018.05
2017-05-03T05:25:21.267Z,1018.06
2017-05-03T05:26:30.218Z,1018.06
2017-05-03T05:27:39.170Z,1018.1
2017-05-03T05:28:48.127Z,1018.17
2017-05-03T05:29:57.085Z,1018.16
2017-05-03T05:31:06.296Z,1018.1
2017-05-03T05:32:15.425Z,1018.02
2017-05-03T05:33:24.376Z,1018.03
2017-05-03T05:34:33.424Z,1018.07
2017-05-03T05:35:42.372Z,1018.01
2017-05-03T05:36:51.664Z,1018.02
2017-05-03T05:38:00.615Z,1018.04
2017-05-03T05:39:09.573Z,1017.97
2017-05-03T05:40:18.528Z,1018.02
2017-05-03T05:41:27.483Z,1018.1
2017-05-03T05:42:36.698Z,1018.11
2017-05-03T05:43:45.658Z,1018.1
2017-05-03T05:44:54.613Z,1018.12
2017-05-03T05:46:03.602Z,1018.11
2017-05-03T05:47:12.870Z,1018.13
2017-05-03T05:48:22.187Z,1018.11
2017-05-03T05:49:31.280Z,1018.09
2017-05-03T05:50:40.235Z,1018.14
2017-05-03T05:51:49.219Z,1018.1
2017-05-03T05:52:58.501Z,1018.05
2017-05-03T05:54:08.460Z,1018.04
2017-05-03T05:55:17.432Z,1018.05
2017-05-03T05:56:27.461Z,1018.09
2017-05-03T05:57:36.422Z,1018.07
2017-05-03T05:58:45.382Z,1018.11
2017-05-03T05:59:54.593Z,1018.11
2017-05-03T06:01:03.548Z,1018.13
2017-05-03T06:02:13.077Z,1018.1
2017-05-03T06:03:22.172Z,1018.18
2017-05-03T06:04:31.125Z,1018.15
2017-05-03T06:05:41.090Z,1018.12
2017-05-03T06:06:50.676Z,1018.15
2017-05-03T06:08:01.751Z,1018.06
2017-05-03T06:09:10.713Z,1018.16
2017-05-03T06:10:19.665Z,1018.18
2017-05-03T06:11:28.880Z,1018.17
2017-05-03T06:12:37.955Z,1018.13
2017-05-03T06:13:47.177Z,1018.16
2017-05-03T06:14:56.405Z,1018.16
2017-05-03T06:16:05.566Z,1018.2
2017-05-03T06:17:14.771Z,1018.21
2017-05-03T06:18:23.735Z,1018.18
2017-05-03T06:19:32.695Z,1018.21
2017-05-03T06:20:41.738Z,1018.23
2017-05-03T06:21:50.701Z,1018.19
2017-05-03T06:22:59.908Z,1018.2
2017-05-03T06:24:08.871Z,1018.18
2017-05-03T06:25:17.828Z,1018.22
2017-05-03T06:26:26.785Z,1018.19
2017-05-03T06:27:35.742Z,1018.17
2017-05-03T06:28:45.037Z,1018.18
2017-05-03T06:29:54.250Z,1018.22
2017-05-03T06:31:03.209Z,1018.17
2017-05-03T06:32:12.157Z,1018.22
2017-05-03T06:33:21.115Z,1018.25
2017-05-03T06:34:30.330Z,1018.22
2017-05-03T06:35:39.292Z,1018.23
2017-05-03T06:36:48.242Z,1018.21
2017-05-03T06:37:57.531Z,1018.19
2017-05-03T06:39:06.569Z,1018.19
2017-05-03T06:40:15.776Z,1018.18
2017-05-03T06:41:24.730Z,1018.2
2017-05-03T06:42:33.719Z,1018.2
2017-05-03T06:43:42.722Z,1018.13
2017-05-03T06:44:51.758Z,1018.15
2017-05-03T06:46:00.977Z,1018.19
2017-05-03T06:47:09.937Z,1018.24
2017-05-03T06:48:18.979Z,1018.21
2017-05-03T06:49:27.978Z,1018.24
2017-05-03T06:50:36.997Z,1018.23
2017-05-03T06:51:46.316Z,1018.29
2017-05-03T06:52:55.299Z,1018.28
2017-05-03T06:54:04.651Z,1018.28
2017-05-03T06:55:14.382Z,1018.29
2017-05-03T06:56:23.421Z,1018.3
2017-05-03T06:57:32.863Z,1018.3
2017-05-03T06:58:41.831Z,1018.34
2017-05-03T06:59:50.842Z,1018.31
2017-05-03T07:01:00.129Z,1018.3
2017-05-03T07:02:09.078Z,1018.32
2017-05-03T07:03:18.280Z,1018.36
2017-05-03T07:04:27.239Z,1018.42
2017-05-03T07:05:36.196Z,1018.35
2017-05-03T07:06:45.160Z,1018.39
2017-05-03T07:07:54.114Z,1018.35
2017-05-03T07:09:05.967Z,1018.38
2017-05-03T07:10:14.930Z,1018.4
2017-05-03T07:11:23.922Z,1018.44
2017-05-03T07:12:33.109Z,1018.39
2017-05-03T07:13:42.063Z,1018.45
2017-05-03T07:14:51.264Z,1018.39
2017-05-03T07:16:00.226Z,1018.38
2017-05-03T07:17:09.441Z,1018.4
2017-05-03T07:18:18.402Z,1018.39
2017-05-03T07:19:27.374Z,1018.35
2017-05-03T07:20:36.586Z,1018.4
2017-05-03T07:21:45.554Z,1018.4
2017-05-03T07:22:54.506Z,1018.43
2017-05-03T07:24:03.783Z,1018.4
2017-05-03T07:25:12.736Z,1018.49
2017-05-03T07:26:21.945Z,1018.42
2017-05-03T07:27:31.037Z,1018.46
2017-05-03T07:28:39.996Z,1018.44
2017-05-03T07:29:48.962Z,1018.45
2017-05-03T07:30:58.009Z,1018.49
2017-05-03T07:32:07.239Z,1018.46
2017-05-03T07:33:16.280Z,1018.44
2017-05-03T07:34:25.253Z,1018.53
2017-05-03T07:35:34.211Z,1018.48
2017-05-03T07:36:43.184Z,1018.48
2017-05-03T07:37:52.447Z,1018.45
2017-05-03T07:39:01.407Z,1018.5
2017-05-03T07:40:10.368Z,1018.56
2017-05-03T07:41:19.321Z,1018.52
2017-05-03T07:42:28.304Z,1018.5
2017-05-03T07:43:37.511Z,1018.52
2017-05-03T07:44:46.476Z,1018.53
2017-05-03T07:45:55.841Z,1018.57
2017-05-03T07:47:04.885Z,1018.54
2017-05-03T07:48:13.845Z,1018.52
2017-05-03T07:49:23.048Z,1018.53
2017-05-03T07:50:32.011Z,1018.53
2017-05-03T07:51:40.972Z,1018.54
2017-05-03T07:52:49.934Z,1018.58
2017-05-03T07:53:58.899Z,1018.56
2017-05-03T07:55:08.106Z,1018.52
2017-05-03T07:56:17.062Z,1018.55
2017-05-03T07:57:26.016Z,1018.55
2017-05-03T07:58:34.967Z,1018.56
2017-05-03T07:59:43.919Z,1018.59
2017-05-03T08:00:53.123Z,1018.6
2017-05-03T08:02:02.077Z,1018.55
2017-05-03T08:03:11.043Z,1018.55
2017-05-03T08:04:20.013Z,1018.6
2017-05-03T08:05:28.973Z,1018.56
2017-05-03T08:06:38.509Z,1018.63
2017-05-03T08:07:47.466Z,1018.61
2017-05-03T08:08:56.424Z,1018.69
2017-05-03T08:10:05.708Z,1018.6
2017-05-03T08:11:14.663Z,1018.64
2017-05-03T08:12:23.870Z,1018.67
2017-05-03T08:13:32.828Z,1018.7
2017-05-03T08:14:41.873Z,1018.7
2017-05-03T08:15:51.242Z,1018.75
2017-05-03T08:17:00.230Z,1018.74
2017-05-03T08:18:09.644Z,1018.71
2017-05-03T08:19:18.644Z,1018.72
2017-05-03T08:20:27.632Z,1018.72
2017-05-03T08:21:36.609Z,1018.67
2017-05-03T08:22:46.225Z,1018.67
2017-05-03T08:23:55.497Z,1018.66
2017-05-03T08:25:04.456Z,1018.66
2017-05-03T08:26:13.830Z,1018.67
2017-05-03T08:27:23.413Z,1018.66
2017-05-03T08:28:32.712Z,1018.72
2017-05-03T08:29:42.078Z,1018.68
2017-05-03T08:30:51.037Z,1018.7
2017-05-03T08:32:00.019Z,1018.72
2017-05-03T08:33:09.016Z,1018.67
2017-05-03T08:34:18.000Z,1018.7
2017-05-03T08:35:27.321Z,1018.68
2017-05-03T08:36:36.299Z,1018.67
2017-05-03T08:37:45.274Z,1018.6
2017-05-03T08:38:54.248Z,1018.65
2017-05-03T08:40:03.310Z,1018.68
2017-05-03T08:41:12.546Z,1018.68
2017-05-03T08:42:21.520Z,1018.67
2017-05-03T08:43:30.511Z,1018.71
2017-05-03T08:44:39.484Z,1018.68
2017-05-03T08:45:48.439Z,1018.72
2017-05-03T08:46:57.785Z,1018.68
2017-05-03T08:48:06.826Z,1018.62
2017-05-03T08:49:15.781Z,1018.59
2017-05-03T08:50:24.920Z,1018.6
2017-05-03T08:51:33.989Z,1018.62
2017-05-03T08:52:43.326Z,1018.63
2017-05-03T08:53:52.771Z,1018.65
2017-05-03T08:55:01.866Z,1018.61
2017-05-03T08:56:10.879Z,1018.65
2017-05-03T08:57:20.235Z,1018.66
2017-05-03T08:58:29.540Z,1018.59
2017-05-03T08:59:39.313Z,1018.62
2017-05-03T09:00:48.447Z,1018.63
2017-05-03T09:01:58.004Z,1018.68
2017-05-03T09:03:07.189Z,1018.62
2017-05-03T09:04:16.543Z,1018.62
2017-05-03T09:05:25.560Z,1018.62
2017-05-03T09:06:34.670Z,1018.64
2017-05-03T09:07:43.935Z,1018.63
2017-05-03T09:08:53.063Z,1018.66
2017-05-03T09:10:02.460Z,1018.66
2017-05-03T09:11:11.549Z,1018.69
2017-05-03T09:12:20.554Z,1018.69
2017-05-03T09:13:29.511Z,1018.66
2017-05-03T09:14:38.519Z,1018.69
2017-05-03T09:15:48.050Z,1018.67
2017-05-03T09:16:57.285Z,1018.65
2017-05-03T09:18:06.252Z,1018.66
2017-05-03T09:19:15.306Z,1018.68
2017-05-03T09:20:24.577Z,1018.73
2017-05-03T09:21:34.415Z,1018.68
2017-05-03T09:22:43.397Z,1018.67
2017-05-03T09:23:52.479Z,1018.71
2017-05-03T09:25:01.997Z,1018.68
2017-05-03T09:26:11.026Z,1018.7
2017-05-03T09:27:20.499Z,1018.68
2017-05-03T09:28:29.501Z,1018.64
2017-05-03T09:29:38.540Z,1018.63
2017-05-03T09:30:47.519Z,1018.67
2017-05-03T09:31:56.473Z,1018.67
2017-05-03T09:33:05.788Z,1018.64
2017-05-03T09:34:14.850Z,1018.65
2017-05-03T09:35:23.874Z,1018.61
2017-05-03T09:36:33.038Z,1018.66
2017-05-03T09:37:42.116Z,1018.66
2017-05-03T09:38:51.856Z,1018.71
2017-05-03T09:40:01.455Z,1018.65
2017-05-03T09:41:10.482Z,1018.66
2017-05-03T09:42:19.693Z,1018.62
2017-05-03T09:43:28.953Z,1018.58
2017-05-03T09:44:38.372Z,1018.67
2017-05-03T09:45:47.859Z,1018.62
2017-05-03T09:46:57.074Z,1018.67
2017-05-03T09:48:06.532Z,1018.66
2017-05-03T09:49:15.648Z,1018.66
2017-05-03T09:50:25.154Z,1018.7
2017-05-03T09:51:34.274Z,1018.66
2017-05-03T09:52:43.378Z,1018.65
2017-05-03T09:53:52.614Z,1018.61
2017-05-03T09:55:01.629Z,1018.6
2017-05-03T09:56:10.960Z,1018.61
2017-05-03T09:57:20.008Z,1018.58
2017-05-03T09:58:28.965Z,1018.57
2017-05-03T09:59:38.008Z,1018.59
2017-05-03T10:00:46.968Z,1018.65
2017-05-03T10:01:56.178Z,1018.58
2017-05-03T10:03:05.203Z,1018.58
2017-05-03T10:04:14.398Z,1018.68
2017-05-03T10:05:23.608Z,1018.6
2017-05-03T10:06:32.801Z,1018.58
2017-05-03T10:07:42.305Z,1018.53
2017-05-03T10:08:51.410Z,1018.5
2017-05-03T10:10:00.760Z,1018.54
2017-05-03T10:11:09.983Z,1018.51
2017-05-03T10:12:19.103Z,1018.46
2017-05-03T10:13:28.776Z,1018.53
2017-05-03T10:14:37.961Z,1018.46
2017-05-03T10:15:47.017Z,1018.44
2017-05-03T10:16:56.319Z,1018.43
2017-05-03T10:18:05.750Z,1018.46
2017-05-03T10:19:15.045Z,1018.44
2017-05-03T10:20:24.005Z,1018.43
2017-05-03T10:21:32.961Z,1018.51
2017-05-03T10:22:41.928Z,1018.52
2017-05-03T10:23:50.887Z,1018.58
2017-05-03T10:25:00.146Z,1018.55
2017-05-03T10:26:09.107Z,1018.51
2017-05-03T10:27:18.063Z,1018.5
2017-05-03T10:28:27.024Z,1018.51
2017-05-03T10:29:35.985Z,1018.5
2017-05-03T10:30:45.190Z,1018.5
2017-05-03T10:31:54.152Z,1018.51
2017-05-03T10:33:03.106Z,1018.53
2017-05-03T10:34:12.150Z,1018.51
2017-05-03T10:35:21.098Z,1018.47
2017-05-03T10:36:30.638Z,1018.46
2017-05-03T10:37:39.591Z,1018.44
2017-05-03T10:38:48.645Z,1018.44
2017-05-03T10:39:57.598Z,1018.48
2017-05-03T10:41:06.558Z,1018.46
2017-05-03T10:42:15.780Z,1018.49
2017-05-03T10:43:24.735Z,1018.49
2017-05-03T10:44:33.695Z,1018.52
2017-05-03T10:45:42.652Z,1018.5
2017-05-03T10:46:51.697Z,1018.52
2017-05-03T10:48:00.897Z,1018.53
2017-05-03T10:49:09.852Z,1018.52
2017-05-03T10:50:18.867Z,1018.47
2017-05-03T10:51:28.134Z,1018.42
2017-05-03T10:52:37.261Z,1018.44
2017-05-03T10:53:46.641Z,1018.4
2017-05-03T10:54:55.622Z,1018.4
2017-05-03T10:56:04.638Z,1018.46
2017-05-03T10:57:13.681Z,1018.49
2017-05-03T10:58:22.905Z,1018.43
2017-05-03T10:59:32.289Z,1018.39
2017-05-03T11:00:41.257Z,1018.41
2017-05-03T11:01:50.300Z,1018.36
2017-05-03T11:02:59.261Z,1018.4
2017-05-03T11:04:08.412Z,1018.38
2017-05-03T11:05:17.805Z,1018.4
2017-05-03T11:06:26.862Z,1018.4
2017-05-03T11:07:35.852Z,1018.49
2017-05-03T11:08:45.033Z,1018.41
2017-05-03T11:09:54.215Z,1018.45
2017-05-03T11:11:03.522Z,1018.36
2017-05-03T11:12:12.481Z,1018.34
2017-05-03T11:13:21.436Z,1018.43
2017-05-03T11:14:30.394Z,1018.34
2017-05-03T11:15:39.348Z,1018.33
2017-05-03T11:16:48.553Z,1018.29
2017-05-03T11:17:57.505Z,1018.31
2017-05-03T11:19:06.546Z,1018.33
2017-05-03T11:20:15.503Z,1018.38
2017-05-03T11:21:24.549Z,1018.34
2017-05-03T11:22:33.769Z,1018.39
2017-05-03T11:23:43.053Z,1018.35
2017-05-03T11:24:52.011Z,1018.33
2017-05-03T11:26:00.971Z,1018.33
2017-05-03T11:27:10.694Z,1018.24
2017-05-03T11:28:19.943Z,1018.24
2017-05-03T11:29:28.900Z,1018.23
2017-05-03T11:30:37.860Z,1018.22
2017-05-03T11:31:47.052Z,1018.23
2017-05-03T11:32:56.258Z,1018.25
2017-05-03T11:34:05.463Z,1018.14
2017-05-03T11:35:14.417Z,1018.24
2017-05-03T11:36:23.373Z,1018.21
2017-05-03T11:37:32.347Z,1018.25
2017-05-03T11:38:41.389Z,1018.21
2017-05-03T11:39:50.593Z,1018.24
2017-05-03T11:40:59.548Z,1018.22
2017-05-03T11:42:08.506Z,1018.21
2017-05-03T11:43:17.796Z,1018.17
2017-05-03T11:44:26.760Z,1018.15
2017-05-03T11:45:36.104Z,1018.17
2017-05-03T11:46:45.065Z,1018.15
2017-05-03T11:47:54.025Z,1018.15
2017-05-03T11:49:03.031Z,1018.17
2017-05-03T11:50:11.985Z,1018.08
2017-05-03T11:51:21.186Z,1018.14
2017-05-03T11:52:30.231Z,1018.06
2017-05-03T11:53:39.185Z,1018.08
2017-05-03T11:54:48.141Z,1018.09
2017-05-03T11:55:57.093Z,1018.03
2017-05-03T11:57:06.621Z,1018
2017-05-03T11:58:15.662Z,1018.05
2017-05-03T11:59:24.615Z,1018.02
2017-05-03T12:00:33.572Z,1017.99
2017-05-03T12:01:42.532Z,1018
2017-05-03T12:02:51.848Z,1017.98
2017-05-03T12:04:00.810Z,1017.99
2017-05-03T12:05:09.768Z,1017.93
2017-05-03T12:06:18.754Z,1017.92
2017-05-03T12:07:27.869Z,1017.97
2017-05-03T12:08:37.646Z,1017.97
2017-05-03T12:09:46.761Z,1017.98
2017-05-03T12:10:55.719Z,1017.95
2017-05-03T12:12:04.670Z,1017.96
2017-05-03T12:13:13.813Z,1017.95
2017-05-03T12:14:23.572Z,1017.99
2017-05-03T12:15:32.527Z,1018
2017-05-03T12:16:41.485Z,1017.98
2017-05-03T12:17:50.445Z,1017.96
2017-05-03T12:18:59.399Z,1017.97
2017-05-03T12:20:08.697Z,1017.95
2017-05-03T12:21:17.660Z,1017.95
2017-05-03T12:22:26.620Z,1017.93
2017-05-03T12:23:35.574Z,1017.98
2017-05-03T12:24:44.549Z,1017.94
2017-05-03T12:25:53.867Z,1017.9
2017-05-03T12:27:02.823Z,1017.94
2017-05-03T12:28:11.779Z,1017.91
2017-05-03T12:29:20.737Z,1017.89
2017-05-03T12:30:29.701Z,1017.86
2017-05-03T12:31:39.457Z,1017.8
2017-05-03T12:32:48.519Z,1017.82
2017-05-03T12:33:58.125Z,1017.88
2017-05-03T12:35:07.077Z,1017.83
2017-05-03T12:36:16.037Z,1017.83
2017-05-03T12:37:25.247Z,1017.75
2017-05-03T12:38:34.204Z,1017.76
2017-05-03T12:39:43.171Z,1017.74
2017-05-03T12:40:52.127Z,1017.73
2017-05-03T12:42:01.173Z,1017.77
2017-05-03T12:43:10.379Z,1017.79
2017-05-03T12:44:19.428Z,1017.75
2017-05-03T12:45:28.382Z,1017.73
2017-05-03T12:46:37.342Z,1017.78
2017-05-03T12:47:46.384Z,1017.7
2017-05-03T12:48:55.644Z,1017.75
2017-05-03T12:50:04.926Z,1017.78
2017-05-03T12:51:13.890Z,1017.77
2017-05-03T12:52:22.846Z,1017.77
2017-05-03T12:53:32.126Z,1017.8
2017-05-03T12:54:41.341Z,1017.78
2017-05-03T12:55:50.297Z,1017.73
2017-05-03T12:56:59.258Z,1017.68
2017-05-03T12:58:08.218Z,1017.73
2017-05-03T12:59:17.260Z,1017.74
2017-05-03T13:00:26.523Z,1017.71
2017-05-03T13:01:35.489Z,1017.71
2017-05-03T13:02:44.468Z,1017.74
2017-05-03T13:03:53.457Z,1017.68
2017-05-03T13:05:02.432Z,1017.63
2017-05-03T13:06:11.983Z,1017.65
2017-05-03T13:07:21.630Z,1017.64
2017-05-03T13:08:30.837Z,1017.68
2017-05-03T13:09:39.792Z,1017.69
2017-05-03T13:10:49.081Z,1017.65
2017-05-03T13:11:58.313Z,1017.64
2017-05-03T13:13:07.275Z,1017.59
2017-05-03T13:14:16.234Z,1017.64
2017-05-03T13:15:25.368Z,1017.59
2017-05-03T13:16:34.329Z,1017.63
2017-05-03T13:17:43.551Z,1017.6
2017-05-03T13:18:52.890Z,1017.57
2017-05-03T13:20:02.073Z,1017.57
2017-05-03T13:21:11.454Z,1017.47
2017-05-03T13:22:20.529Z,1017.52
2017-05-03T13:23:29.946Z,1017.48
2017-05-03T13:24:39.126Z,1017.47
2017-05-03T13:25:48.327Z,1017.41
2017-05-03T13:26:57.470Z,1017.39
2017-05-03T13:28:06.860Z,1017.45
2017-05-03T13:29:16.280Z,1017.42
2017-05-03T13:30:25.460Z,1017.42
2017-05-03T13:31:34.611Z,1017.41
2017-05-03T13:32:43.704Z,1017.38
2017-05-03T13:33:52.851Z,1017.4
2017-05-03T13:35:02.221Z,1017.34
2017-05-03T13:36:11.211Z,1017.37
2017-05-03T13:37:20.168Z,1017.38
2017-05-03T13:38:29.125Z,1017.33
2017-05-03T13:39:38.081Z,1017.32
2017-05-03T13:40:47.291Z,1017.32
2017-05-03T13:41:56.343Z,1017.31
2017-05-03T13:43:05.305Z,1017.31
2017-05-03T13:44:14.513Z,1017.3
2017-05-03T13:45:23.677Z,1017.27
2017-05-03T13:46:32.886Z,1017.32
2017-05-03T13:47:42.017Z,1017.28
2017-05-03T13:48:51.065Z,1017.26
2017-05-03T13:50:00.030Z,1017.23
2017-05-03T13:51:08.996Z,1017.37
2017-05-03T13:52:18.211Z,1017.26
2017-05-03T13:53:27.421Z,1017.28
2017-05-03T13:54:36.387Z,1017.33
2017-05-03T13:55:45.347Z,1017.33
2017-05-03T13:56:54.392Z,1017.3
2017-05-03T13:58:03.604Z,1017.3
2017-05-03T13:59:12.566Z,1017.3